createdAt,value
2023-01-02T00:01:33.134Z,13.35
2023-01-02T00:04:00.108Z,13.42
2023-01-02T00:06:36.193Z,13.53
2023-01-02T00:09:05.179Z,13.69
2023-01-02T00:11:32.428Z,13.79
2023-01-02T00:13:59.660Z,13.61
2023-01-02T00:16:26.980Z,13.29
2023-01-02T00:18:56.088Z,13.05
2023-01-02T00:21:23.167Z,13.14
2023-01-02T00:23:50.080Z,12.95
2023-01-02T00:26:19.260Z,13.02
2023-01-02T00:28:46.320Z,13.03
2023-01-02T00:31:14.195Z,13.20
2023-01-02T00:33:45.623Z,13.30
2023-01-02T00:36:15.172Z,13.05
2023-01-02T00:38:42.088Z,12.97
2023-01-02T00:41:11.436Z,12.60
2023-01-02T00:43:43.449Z,12.90
2023-01-02T00:46:12.641Z,12.75
2023-01-02T00:48:40.924Z,12.60
2023-01-02T00:51:09.105Z,12.60
2023-01-02T00:53:36.415Z,12.82
2023-01-02T00:56:03.840Z,12.96
2023-01-02T00:58:33.406Z,12.81
2023-01-02T01:01:01.415Z,12.81
2023-01-02T01:03:28.638Z,12.66
2023-01-02T01:05:56.098Z,12.85
2023-01-02T01:08:23.663Z,12.81
2023-01-02T01:10:51.909Z,12.75
2023-01-02T01:13:19.355Z,12.87
2023-01-02T01:15:46.287Z,12.74
2023-01-02T01:18:13.370Z,12.76
2023-01-02T01:20:40.439Z,12.62
2023-01-02T01:23:07.615Z,12.57
2023-01-02T01:25:37.344Z,12.53
2023-01-02T01:28:04.391Z,12.67
2023-01-02T01:30:33.789Z,12.89
2023-01-02T01:33:01.103Z,12.83
2023-01-02T01:35:30.225Z,12.68
2023-01-02T01:37:57.403Z,12.87
2023-01-02T01:40:24.280Z,12.85
2023-01-02T01:43:00.854Z,13.00
2023-01-02T01:45:30.030Z,13.15
2023-01-02T01:48:06.760Z,13.29
2023-01-02T01:50:45.783Z,13.33
2023-01-02T01:53:29.268Z,13.28
2023-01-02T01:56:14.883Z,13.08
2023-01-02T01:58:55.100Z,13.14
2023-01-02T02:01:28.580Z,13.25
2023-01-02T02:04:02.199Z,13.12
2023-01-02T02:06:35.300Z,13.19
2023-01-02T02:09:16.042Z,13.15
2023-01-02T02:11:49.467Z,13.20
2023-01-02T02:14:16.514Z,13.07
2023-01-02T02:17:04.326Z,13.13
2023-01-02T02:19:55.847Z,13.18
2023-01-02T02:23:00.790Z,13.13
2023-01-02T02:25:52.258Z,13.14
2023-01-02T02:29:14.795Z,13.28
2023-01-02T02:32:30.736Z,13.22
2023-01-02T02:35:23.725Z,13.40
2023-01-02T02:38:05.351Z,13.45
2023-01-02T02:40:47.390Z,13.43
2023-01-02T02:43:23.507Z,13.25
2023-01-02T02:46:14.342Z,13.33
2023-01-02T02:48:55.399Z,13.27
2023-01-02T02:51:59.233Z,13.13
2023-01-02T02:54:40.263Z,13.36
2023-01-02T02:57:08.474Z,13.35
2023-01-02T02:59:37.209Z,13.50
2023-01-02T03:02:07.604Z,13.51
2023-01-02T03:04:34.571Z,13.47
2023-01-02T03:07:29.054Z,13.73
2023-01-02T03:11:01.040Z,13.68
2023-01-02T03:13:41.873Z,13.65
2023-01-02T03:16:09.032Z,13.71
2023-01-02T03:18:43.176Z,13.54
2023-01-02T03:21:27.960Z,13.54
2023-01-02T03:24:06.251Z,13.43
2023-01-02T03:26:36.906Z,13.58
2023-01-02T03:29:37.539Z,13.45
2023-01-02T03:32:10.432Z,13.46
2023-01-02T03:34:42.819Z,13.32
2023-01-02T03:37:19.855Z,13.31
2023-01-02T03:39:57.320Z,13.42
2023-01-02T03:42:50.495Z,13.49
2023-01-02T03:45:34.384Z,13.59
2023-01-02T03:48:13.610Z,13.54
2023-01-02T03:50:55.564Z,13.51
2023-01-02T03:53:23.276Z,13.48
2023-01-02T03:56:11.461Z,13.56
2023-01-02T03:58:47.110Z,13.62
2023-01-02T04:01:38.761Z,13.48
2023-01-02T04:04:21.448Z,13.49
2023-01-02T04:07:01.537Z,13.49
2023-01-02T04:09:32.894Z,13.52
2023-01-02T04:12:07.279Z,13.73
2023-01-02T04:14:42.220Z,13.67
2023-01-02T04:17:10.619Z,13.55
2023-01-02T04:19:47.403Z,13.65
2023-01-02T04:22:44.943Z,13.73
2023-01-02T04:25:17.549Z,13.50
2023-01-02T04:28:13.292Z,13.67
2023-01-02T04:30:45.189Z,13.45
2023-01-02T04:33:13.771Z,13.38
2023-01-02T04:35:45.288Z,13.45
2023-01-02T04:38:17.663Z,13.66
2023-01-02T04:40:45.219Z,13.52
2023-01-02T04:43:21.511Z,13.54
2023-01-02T04:45:49.964Z,13.73
2023-01-02T04:48:17.616Z,13.45
2023-01-02T04:50:45.174Z,13.37
2023-01-02T04:53:14.958Z,13.48
2023-01-02T04:55:42.056Z,13.55
2023-01-02T04:58:09.400Z,13.47
2023-01-02T05:00:36.262Z,13.48
2023-01-02T05:03:03.527Z,13.45
2023-01-02T05:05:32.879Z,13.30
2023-01-02T05:07:59.825Z,13.44
2023-01-02T05:10:31.339Z,13.57
2023-01-02T05:12:59.430Z,13.56
2023-01-02T05:15:28.856Z,13.41
2023-01-02T05:17:56.849Z,13.47
2023-01-02T05:20:25.837Z,13.51
2023-01-02T05:23:11.557Z,13.57
2023-01-02T05:25:38.386Z,13.66
2023-01-02T05:28:07.517Z,13.73
2023-01-02T05:30:34.408Z,13.74
2023-01-02T05:33:01.292Z,13.92
2023-01-02T05:35:33.397Z,13.93
2023-01-02T05:38:01.531Z,13.98
2023-01-02T05:40:30.485Z,13.81
2023-01-02T05:42:59.106Z,13.77
2023-01-02T05:45:28.506Z,13.85
2023-01-02T05:47:57.604Z,13.86
2023-01-02T05:50:24.500Z,13.88
2023-01-02T05:52:57.783Z,13.84
2023-01-02T05:55:24.637Z,13.84
2023-01-02T05:57:58.546Z,13.92
2023-01-02T06:00:25.486Z,13.92
2023-01-02T06:02:52.442Z,14.20
2023-01-02T06:05:19.359Z,14.19
2023-01-02T06:07:46.187Z,14.01
2023-01-02T06:10:15.243Z,14.03
2023-01-02T06:12:42.121Z,14.16
2023-01-02T06:15:11.760Z,14.25
2023-01-02T06:17:40.899Z,14.32
2023-01-02T06:20:08.724Z,14.15
2023-01-02T06:22:35.633Z,14.10
2023-01-02T06:25:02.495Z,14.12
2023-01-02T06:27:31.956Z,13.93
2023-01-02T06:30:02.084Z,13.93
2023-01-02T06:32:29.551Z,13.97
2023-01-02T06:34:56.374Z,13.99
2023-01-02T06:37:23.259Z,14.20
2023-01-02T06:39:51.312Z,14.05
2023-01-02T06:42:21.211Z,14.16
2023-01-02T06:44:50.383Z,14.29
2023-01-02T06:47:19.748Z,14.18
2023-01-02T06:49:46.579Z,14.06
2023-01-02T06:52:16.485Z,14.03
2023-01-02T06:54:43.299Z,14.05
2023-01-02T06:57:10.195Z,14.06
2023-01-02T06:59:37.177Z,14.27
2023-01-02T07:02:07.159Z,14.20
2023-01-02T07:04:36.305Z,13.99
2023-01-02T07:07:05.667Z,13.90
2023-01-02T07:09:32.619Z,13.95
2023-01-02T07:12:02.076Z,13.96
2023-01-02T07:14:28.953Z,13.89
2023-01-02T07:16:58.352Z,13.79
2023-01-02T07:19:25.245Z,13.92
2023-01-02T07:21:55.114Z,14.00
2023-01-02T07:24:24.048Z,13.90
2023-01-02T07:26:53.346Z,13.95
2023-01-02T07:29:22.721Z,14.03
2023-01-02T07:31:49.632Z,13.97
2023-01-02T07:34:19.335Z,13.80
2023-01-02T07:36:46.300Z,13.80
2023-01-02T07:39:15.395Z,13.82
2023-01-02T07:41:44.432Z,13.93
2023-01-02T07:44:11.240Z,13.80
2023-01-02T07:46:40.266Z,13.86
2023-01-02T07:49:10.841Z,13.94
2023-01-02T07:51:41.063Z,13.90
2023-01-02T07:54:08.051Z,14.02
2023-01-02T07:56:37.468Z,13.93
2023-01-02T07:59:04.415Z,13.97
2023-01-02T08:01:31.382Z,14.03
2023-01-02T08:04:00.537Z,13.95
2023-01-02T08:06:27.366Z,14.12
2023-01-02T08:08:54.203Z,14.14
2023-01-02T08:11:22.630Z,14.05
2023-01-02T08:13:50.131Z,14.09
2023-01-02T08:16:22.073Z,14.32
2023-01-02T08:18:54.565Z,14.21
2023-01-02T08:21:23.793Z,14.33
2023-01-02T08:23:50.673Z,14.36
2023-01-02T08:26:20.808Z,14.16
2023-01-02T08:28:47.741Z,14.34
2023-01-02T08:31:20.938Z,14.41
2023-01-02T08:33:50.831Z,14.22
2023-01-02T08:36:17.822Z,14.35
2023-01-02T08:38:47.292Z,14.50
2023-01-02T08:41:15.259Z,14.71
2023-01-02T08:43:44.360Z,14.56
2023-01-02T08:46:11.402Z,14.36
2023-01-02T08:48:40.804Z,14.66
2023-01-02T08:51:12.414Z,14.61
2023-01-02T08:53:44.209Z,14.47
2023-01-02T08:56:24.457Z,14.64
2023-01-02T08:59:02.949Z,14.74
2023-01-02T09:01:32.251Z,14.64
2023-01-02T09:04:07.831Z,14.90
2023-01-02T09:06:42.515Z,14.75
2023-01-02T09:09:12.521Z,14.66
2023-01-02T09:12:00.442Z,14.48
2023-01-02T09:14:30.314Z,14.48
2023-01-02T09:17:00.218Z,14.57
2023-01-02T09:19:30.561Z,14.63
2023-01-02T09:22:01.439Z,14.88
2023-01-02T09:24:31.365Z,14.69
2023-01-02T09:27:02.721Z,14.91
2023-01-02T09:29:29.580Z,14.84
2023-01-02T09:31:56.455Z,14.93
2023-01-02T09:34:23.306Z,15.09
2023-01-02T09:36:52.444Z,15.23
2023-01-02T09:39:25.620Z,14.85
2023-01-02T09:41:58.948Z,14.94
2023-01-02T09:44:48.641Z,14.98
2023-01-02T09:47:21.295Z,14.94
2023-01-02T09:49:48.049Z,14.89
2023-01-02T09:52:33.247Z,14.95
2023-01-02T09:55:00.776Z,14.98
2023-01-02T09:57:27.599Z,15.44
2023-01-02T10:00:03.816Z,15.80
2023-01-02T10:03:21.472Z,15.61
2023-01-02T10:05:58.106Z,16.15
2023-01-02T10:08:49.254Z,15.72
2023-01-02T10:11:43.255Z,16.11
2023-01-02T10:14:27.985Z,16.75
2023-01-02T10:17:00.837Z,17.44
2023-01-02T10:19:58.516Z,17.33
2023-01-02T10:22:45.448Z,16.86
2023-01-02T10:25:23.096Z,16.96
2023-01-02T10:27:57.386Z,16.70
2023-01-02T10:30:30.915Z,16.22
2023-01-02T10:33:15.355Z,15.99
2023-01-02T10:35:49.652Z,16.36
2023-01-02T10:38:19.830Z,16.33
2023-01-02T10:40:49.879Z,16.38
2023-01-02T10:43:18.226Z,15.96
2023-01-02T10:45:45.154Z,15.88
2023-01-02T10:48:12.644Z,15.66
2023-01-02T10:50:46.713Z,15.69
2023-01-02T10:53:43.381Z,15.58
2023-01-02T10:56:20.840Z,15.81
2023-01-02T10:58:50.704Z,15.50
2023-01-02T11:01:22.470Z,15.70
2023-01-02T11:04:12.212Z,15.95
2023-01-02T11:06:59.000Z,15.54
2023-01-02T11:09:38.460Z,15.80
2023-01-02T11:12:13.628Z,15.99
2023-01-02T11:14:41.348Z,15.78
2023-01-02T11:17:12.674Z,15.92
2023-01-02T11:19:54.293Z,15.78
2023-01-02T11:22:31.042Z,15.63
2023-01-02T11:25:25.729Z,15.44
2023-01-02T11:27:58.899Z,15.29
2023-01-02T11:30:44.929Z,14.85
2023-01-02T11:33:19.650Z,14.87
2023-01-02T11:35:49.137Z,15.06
2023-01-02T11:38:29.531Z,15.52
2023-01-02T11:41:04.235Z,15.74
2023-01-02T11:43:49.061Z,16.12
2023-01-02T11:46:37.676Z,16.87
2023-01-02T11:49:23.890Z,16.69
2023-01-02T11:52:06.980Z,16.58
2023-01-02T11:54:47.416Z,16.84
2023-01-02T11:57:49.685Z,15.91
2023-01-02T12:00:19.887Z,16.18
2023-01-02T12:02:52.126Z,17.02
2023-01-02T12:05:48.177Z,16.66
2023-01-02T12:08:51.305Z,16.13
2023-01-02T12:11:30.311Z,15.82
2023-01-02T12:14:19.801Z,15.72
2023-01-02T12:17:11.613Z,15.77
2023-01-02T12:20:23.329Z,15.85
2023-01-02T12:23:32.999Z,15.24
2023-01-02T12:26:25.122Z,15.32
2023-01-02T12:29:46.399Z,15.09
2023-01-02T12:32:57.923Z,15.03
2023-01-02T12:35:33.680Z,14.70
2023-01-02T12:38:11.323Z,14.62
2023-01-02T12:41:10.188Z,14.80
2023-01-02T12:44:01.475Z,15.11
2023-01-02T12:46:39.995Z,15.42
2023-01-02T12:49:12.335Z,15.50
2023-01-02T12:52:04.597Z,15.03
2023-01-02T12:54:52.087Z,15.24
2023-01-02T12:57:30.824Z,15.03
2023-01-02T13:00:40.233Z,15.15
2023-01-02T13:03:46.314Z,14.70
2023-01-02T13:06:44.907Z,14.44
2023-01-02T13:09:23.558Z,14.64
2023-01-02T13:11:59.498Z,14.75
2023-01-02T13:14:58.200Z,14.59
2023-01-02T13:17:52.435Z,14.53
2023-01-02T13:20:59.272Z,14.71
2023-01-02T13:23:33.555Z,14.54
2023-01-02T13:26:08.846Z,14.24
2023-01-02T13:29:06.936Z,13.69
2023-01-02T13:31:48.007Z,13.49
2023-01-02T13:34:31.752Z,13.22
2023-01-02T13:37:16.780Z,13.06
2023-01-02T13:39:49.988Z,13.40
2023-01-02T13:42:55.850Z,13.65
2023-01-02T13:45:50.019Z,13.54
2023-01-02T13:48:58.483Z,13.28
2023-01-02T13:51:32.135Z,13.34
2023-01-02T13:54:04.661Z,12.98
2023-01-02T13:56:33.944Z,13.23
2023-01-02T13:59:41.703Z,13.51
2023-01-02T14:02:21.433Z,13.43
2023-01-02T14:04:48.598Z,13.33
2023-01-02T14:07:28.973Z,13.58
2023-01-02T14:10:12.983Z,13.67
2023-01-02T14:12:53.398Z,13.87
2023-01-02T14:15:29.088Z,13.66
2023-01-02T14:18:05.629Z,13.39
2023-01-02T14:20:44.301Z,13.15
2023-01-02T14:23:29.695Z,13.27
2023-01-02T14:25:56.897Z,13.19
2023-01-02T14:28:27.654Z,13.22
2023-01-02T14:30:56.367Z,13.30
2023-01-02T14:33:35.807Z,13.22
2023-01-02T14:36:12.019Z,13.11
2023-01-02T14:38:51.063Z,13.28
2023-01-02T14:42:10.562Z,13.42
2023-01-02T14:44:44.766Z,13.56
2023-01-02T14:47:17.349Z,13.03
2023-01-02T14:49:56.469Z,13.28
2023-01-02T14:52:35.408Z,13.40
2023-01-02T14:55:21.252Z,13.10
2023-01-02T14:57:51.353Z,13.16
2023-01-02T15:00:38.484Z,13.28
2023-01-02T15:03:19.818Z,13.39
2023-01-02T15:06:42.238Z,13.15
2023-01-02T15:09:24.056Z,13.31
2023-01-02T15:12:19.079Z,13.12
2023-01-02T15:14:49.000Z,12.66
2023-01-02T15:17:21.300Z,12.73
2023-01-02T15:19:48.744Z,13.00
2023-01-02T15:22:26.385Z,12.96
2023-01-02T15:24:54.163Z,12.87
2023-01-02T15:27:25.507Z,12.77
2023-01-02T15:29:56.900Z,12.75
2023-01-02T15:32:35.946Z,12.77
2023-01-02T15:35:26.971Z,12.60
2023-01-02T15:37:54.071Z,12.59
2023-01-02T15:40:29.503Z,12.73
2023-01-02T15:43:22.538Z,12.80
2023-01-02T15:45:57.487Z,12.79
2023-01-02T15:48:30.812Z,13.11
2023-01-02T15:51:00.623Z,13.03
2023-01-02T15:53:30.723Z,13.03
2023-01-02T15:55:58.682Z,13.17
2023-01-02T15:58:31.890Z,13.06
2023-01-02T16:01:19.461Z,13.04
2023-01-02T16:04:04.754Z,13.17
2023-01-02T16:06:34.162Z,13.22
2023-01-02T16:09:05.413Z,13.06
2023-01-02T16:11:44.793Z,12.82
2023-01-02T16:14:20.842Z,12.73
2023-01-02T16:16:58.589Z,12.50
2023-01-02T16:19:32.656Z,12.80
2023-01-02T16:22:10.428Z,12.74
2023-01-02T16:25:06.705Z,12.50
2023-01-02T16:27:47.390Z,12.20
2023-01-02T16:30:32.694Z,11.84
2023-01-02T16:33:21.083Z,12.03
2023-01-02T16:36:00.988Z,11.94
2023-01-02T16:38:28.721Z,12.13
2023-01-02T16:41:04.474Z,11.91
2023-01-02T16:43:36.726Z,12.00
2023-01-02T16:46:14.304Z,12.01
2023-01-02T16:48:45.146Z,12.19
2023-01-02T16:51:16.188Z,12.09
2023-01-02T16:53:45.381Z,12.04
2023-01-02T16:56:12.749Z,12.25
2023-01-02T16:58:42.293Z,12.18
2023-01-02T17:01:14.474Z,12.07
2023-01-02T17:03:42.068Z,11.98
2023-01-02T17:06:18.671Z,11.87
2023-01-02T17:08:45.796Z,11.98
2023-01-02T17:11:22.760Z,11.92
2023-01-02T17:13:56.062Z,12.05
2023-01-02T17:16:23.063Z,11.79
2023-01-02T17:18:53.063Z,11.86
2023-01-02T17:21:25.146Z,11.99
2023-01-02T17:23:58.463Z,11.94
2023-01-02T17:26:28.045Z,11.87
2023-01-02T17:28:57.488Z,11.95
2023-01-02T17:31:26.236Z,11.95
2023-01-02T17:33:53.424Z,11.81
2023-01-02T17:36:22.404Z,11.67
2023-01-02T17:38:51.694Z,11.73
2023-01-02T17:41:20.927Z,11.85
2023-01-02T17:44:02.261Z,11.80
2023-01-02T17:49:18.661Z,12.09
2023-01-02T17:51:45.558Z,11.87
2023-01-02T17:54:12.642Z,11.77
2023-01-02T17:56:42.158Z,11.88
2023-01-02T17:59:09.251Z,11.96
2023-01-02T18:01:38.809Z,12.05
2023-01-02T18:04:06.329Z,11.97
2023-01-02T18:06:33.405Z,11.95
2023-01-02T18:09:00.242Z,11.69
2023-01-02T18:11:27.070Z,11.79
2023-01-02T18:13:55.880Z,11.79
2023-01-02T18:16:35.102Z,11.83
2023-01-02T18:19:04.089Z,11.89
2023-01-02T18:21:33.417Z,11.75
2023-01-02T18:24:03.318Z,11.75
2023-01-02T18:26:32.707Z,11.60
2023-01-02T18:29:09.511Z,11.48
2023-01-02T18:31:42.961Z,11.67
2023-01-02T18:34:46.201Z,11.50
2023-01-02T18:37:27.977Z,11.64
2023-01-02T18:40:08.907Z,11.65
2023-01-02T18:42:41.367Z,11.86
2023-01-02T18:45:18.012Z,11.81
2023-01-02T18:47:54.370Z,11.70
2023-01-02T18:50:37.783Z,11.68
2023-01-02T18:53:18.082Z,11.48
2023-01-02T18:55:48.076Z,11.63
2023-01-02T18:58:41.546Z,11.55
2023-01-02T19:01:27.128Z,11.57
2023-01-02T19:04:27.898Z,11.39
2023-01-02T19:07:14.297Z,11.56
2023-01-02T19:09:41.269Z,11.63
2023-01-02T19:12:32.772Z,11.90
2023-01-02T19:15:31.586Z,11.95
2023-01-02T19:18:14.303Z,12.01
2023-01-02T19:21:00.402Z,11.83
2023-01-02T19:23:58.625Z,11.83
2023-01-02T19:26:50.862Z,12.08
2023-01-02T19:29:31.696Z,12.14
2023-01-02T19:32:23.460Z,12.20
2023-01-02T19:34:51.197Z,12.03
2023-01-02T19:37:40.756Z,12.05
2023-01-02T19:40:21.879Z,11.98
2023-01-02T19:42:50.932Z,11.90
2023-01-02T19:45:25.409Z,11.68
2023-01-02T19:47:59.151Z,11.67
2023-01-02T19:50:32.548Z,11.66
2023-01-02T19:53:01.906Z,11.62
2023-01-02T19:55:28.836Z,11.70
2023-01-02T19:57:57.253Z,11.74
2023-01-02T20:00:24.454Z,11.59
2023-01-02T20:02:52.617Z,11.53
2023-01-02T20:05:23.105Z,11.70
2023-01-02T20:07:53.648Z,11.62
2023-01-02T20:10:21.948Z,11.53
2023-01-02T20:12:50.242Z,11.47
2023-01-02T20:15:26.530Z,11.33
2023-01-02T20:17:55.629Z,11.40
2023-01-02T20:20:25.396Z,11.37
2023-01-02T20:22:56.745Z,11.29
2023-01-02T20:25:26.254Z,11.35
2023-01-02T20:27:55.908Z,11.27
2023-01-02T20:30:27.168Z,11.16
2023-01-02T20:32:54.675Z,11.04
2023-01-02T20:35:22.738Z,11.23
2023-01-02T20:37:52.776Z,10.88
2023-01-02T20:40:19.660Z,10.91
2023-01-02T20:42:49.037Z,10.89
2023-01-02T20:45:16.038Z,10.96
2023-01-02T20:47:42.948Z,10.80
2023-01-02T20:50:13.065Z,10.87
2023-01-02T20:52:40.145Z,11.11
2023-01-02T20:55:08.052Z,11.22
2023-01-02T20:57:34.981Z,11.04
2023-01-02T21:00:02.306Z,10.92
2023-01-02T21:02:29.586Z,10.96
2023-01-02T21:04:56.961Z,10.82
2023-01-02T21:07:24.004Z,10.85
2023-01-02T21:09:51.878Z,10.80
2023-01-02T21:12:37.225Z,10.95
2023-01-02T21:15:04.688Z,10.67
2023-01-02T21:17:31.634Z,10.82
2023-01-02T21:20:01.065Z,10.61
2023-01-02T21:22:27.945Z,10.71
2023-01-02T21:24:56.966Z,10.67
2023-01-02T21:27:23.866Z,10.55
2023-01-02T21:29:51.239Z,10.67
2023-01-02T21:32:18.237Z,10.69
2023-01-02T21:34:47.347Z,10.52
2023-01-02T21:37:14.343Z,10.18
2023-01-02T21:39:42.523Z,10.26
2023-01-02T21:42:18.297Z,10.42
2023-01-02T21:44:49.748Z,10.34
2023-01-02T21:47:20.053Z,10.42
2023-01-02T21:49:47.098Z,10.28
2023-01-02T21:52:14.683Z,10.41
2023-01-02T21:54:41.956Z,10.16
2023-01-02T21:57:09.089Z,9.86
2023-01-02T21:59:36.429Z,9.95
2023-01-02T22:02:06.284Z,9.92
2023-01-02T22:04:36.228Z,10.01
2023-01-02T22:07:30.666Z,9.76
2023-01-02T22:09:50.721Z,9.93
2023-01-02T22:12:20.404Z,9.86
2023-01-02T22:14:49.750Z,9.82
2023-01-02T22:17:16.718Z,9.85
2023-01-02T22:19:45.802Z,9.77
2023-01-02T22:22:12.718Z,9.75
2023-01-02T22:24:44.401Z,9.89
2023-01-02T22:27:18.280Z,9.75
2023-01-02T22:32:40.440Z,9.47
2023-01-02T22:35:08.621Z,9.53
2023-01-02T22:37:35.696Z,9.52
2023-01-02T22:40:02.596Z,9.31
2023-01-02T22:43:01.674Z,9.18
2023-01-02T22:45:36.964Z,9.18
2023-01-02T22:48:07.768Z,9.26
2023-01-02T22:50:48.249Z,9.45
2023-01-02T22:53:24.610Z,9.39
2023-01-02T22:55:54.600Z,9.37
2023-01-02T22:58:22.393Z,9.22
2023-01-02T23:00:59.542Z,9.26
2023-01-02T23:03:32.463Z,9.26
2023-01-02T23:05:59.314Z,9.19
2023-01-02T23:08:26.296Z,9.10
2023-01-02T23:10:56.302Z,9.09
2023-01-02T23:13:23.442Z,9.26
2023-01-02T23:16:11.042Z,9.34
2023-01-02T23:18:57.429Z,9.38
2023-01-02T23:21:33.218Z,9.45
2023-01-02T23:24:00.781Z,9.33
2023-01-02T23:26:36.894Z,9.43
2023-01-02T23:29:07.378Z,9.71
2023-01-02T23:31:40.597Z,9.29
2023-01-02T23:34:09.099Z,9.18
2023-01-02T23:36:41.803Z,9.11
2023-01-02T23:39:15.467Z,8.99
2023-01-02T23:41:47.025Z,9.17
2023-01-02T23:44:15.279Z,9.18
2023-01-02T23:46:43.017Z,9.04
2023-01-02T23:49:13.829Z,9.00
2023-01-02T23:51:43.770Z,8.96
2023-01-02T23:54:16.381Z,8.88
2023-01-02T23:56:46.822Z,8.78
2023-01-02T23:59:20.281Z,8.77
